sensor_id;sensor_type;location;lat;lon;timestamp;temperature;humidity
20487;DHT22;10402;49.012;8.370;2023-05-18T00:01:58;10.70;66.80
20487;DHT22;10402;49.012;8.370;2023-05-18T00:04:23;10.70;66.90
20487;DHT22;10402;49.012;8.370;2023-05-18T00:06:50;10.70;67.00
20487;DHT22;10402;49.012;8.370;2023-05-18T00:09:24;10.70;67.00
20487;DHT22;10402;49.012;8.370;2023-05-18T00:11:50;10.70;67.10
20487;DHT22;10402;49.012;8.370;2023-05-18T00:14:16;10.80;67.20
20487;DHT22;10402;49.012;8.370;2023-05-18T00:16:41;10.80;67.20
20487;DHT22;10402;49.012;8.370;2023-05-18T00:19:07;10.80;67.20
20487;DHT22;10402;49.012;8.370;2023-05-18T00:21:32;10.80;67.10
20487;DHT22;10402;49.012;8.370;2023-05-18T00:23:59;10.80;67.10
20487;DHT22;10402;49.012;8.370;2023-05-18T00:26:25;10.80;67.10
20487;DHT22;10402;49.012;8.370;2023-05-18T00:28:51;10.90;67.10
20487;DHT22;10402;49.012;8.370;2023-05-18T00:31:17;10.90;66.90
20487;DHT22;10402;49.012;8.370;2023-05-18T00:33:43;10.80;66.70
20487;DHT22;10402;49.012;8.370;2023-05-18T00:36:10;10.80;66.80
20487;DHT22;10402;49.012;8.370;2023-05-18T00:38:35;10.80;67.00
20487;DHT22;10402;49.012;8.370;2023-05-18T00:41:01;10.80;67.00
20487;DHT22;10402;49.012;8.370;2023-05-18T00:43:27;10.80;67.00
20487;DHT22;10402;49.012;8.370;2023-05-18T00:45:52;10.80;67.00
20487;DHT22;10402;49.012;8.370;2023-05-18T00:48:18;10.80;67.10
20487;DHT22;10402;49.012;8.370;2023-05-18T00:50:43;10.70;67.20
20487;DHT22;10402;49.012;8.370;2023-05-18T00:53:09;10.70;67.20
20487;DHT22;10402;49.012;8.370;2023-05-18T00:55:35;10.70;67.30
20487;DHT22;10402;49.012;8.370;2023-05-18T00:58:01;10.60;67.30
20487;DHT22;10402;49.012;8.370;2023-05-18T01:00:27;10.60;67.40
20487;DHT22;10402;49.012;8.370;2023-05-18T01:02:53;10.60;67.50
20487;DHT22;10402;49.012;8.370;2023-05-18T01:05:19;10.60;67.50
20487;DHT22;10402;49.012;8.370;2023-05-18T01:07:47;10.60;67.60
20487;DHT22;10402;49.012;8.370;2023-05-18T01:10:14;10.50;67.50
20487;DHT22;10402;49.012;8.370;2023-05-18T01:12:55;10.50;67.90
20487;DHT22;10402;49.012;8.370;2023-05-18T01:18:01;10.30;67.60
20487;DHT22;10402;49.012;8.370;2023-05-18T01:20:39;10.30;67.90
20487;DHT22;10402;49.012;8.370;2023-05-18T01:28:27;10.20;68.00
20487;DHT22;10402;49.012;8.370;2023-05-18T01:30:54;10.20;68.00
20487;DHT22;10402;49.012;8.370;2023-05-18T01:33:20;10.20;67.80
20487;DHT22;10402;49.012;8.370;2023-05-18T01:35:46;10.20;67.80
20487;DHT22;10402;49.012;8.370;2023-05-18T01:38:22;10.10;67.90
20487;DHT22;10402;49.012;8.370;2023-05-18T01:41:02;10.10;68.00
20487;DHT22;10402;49.012;8.370;2023-05-18T01:43:33;10.00;67.80
20487;DHT22;10402;49.012;8.370;2023-05-18T01:48:50;10.00;67.80
20487;DHT22;10402;49.012;8.370;2023-05-18T01:51:19;9.90;68.90
20487;DHT22;10402;49.012;8.370;2023-05-18T01:53:52;9.90;69.60
20487;DHT22;10402;49.012;8.370;2023-05-18T01:56:19;9.90;68.80
20487;DHT22;10402;49.012;8.370;2023-05-18T01:58:46;9.90;68.80
20487;DHT22;10402;49.012;8.370;2023-05-18T02:01:13;9.90;68.90
20487;DHT22;10402;49.012;8.370;2023-05-18T02:03:38;9.90;68.90
20487;DHT22;10402;49.012;8.370;2023-05-18T02:06:04;9.80;68.70
20487;DHT22;10402;49.012;8.370;2023-05-18T02:08:29;9.80;68.70
20487;DHT22;10402;49.012;8.370;2023-05-18T02:10:55;9.80;68.80
20487;DHT22;10402;49.012;8.370;2023-05-18T02:13:20;9.70;68.70
20487;DHT22;10402;49.012;8.370;2023-05-18T02:15:46;9.70;68.70
20487;DHT22;10402;49.012;8.370;2023-05-18T02:18:12;9.70;68.70
20487;DHT22;10402;49.012;8.370;2023-05-18T02:20:37;9.60;68.90
20487;DHT22;10402;49.012;8.370;2023-05-18T02:23:04;9.60;68.90
20487;DHT22;10402;49.012;8.370;2023-05-18T02:25:30;9.60;69.00
20487;DHT22;10402;49.012;8.370;2023-05-18T02:27:55;9.50;69.00
20487;DHT22;10402;49.012;8.370;2023-05-18T02:30:21;9.50;69.00
20487;DHT22;10402;49.012;8.370;2023-05-18T02:32:46;9.50;69.10
20487;DHT22;10402;49.012;8.370;2023-05-18T02:35:15;9.50;69.10
20487;DHT22;10402;49.012;8.370;2023-05-18T02:37:41;9.50;69.80
20487;DHT22;10402;49.012;8.370;2023-05-18T02:40:12;9.50;69.10
20487;DHT22;10402;49.012;8.370;2023-05-18T02:42:38;9.50;69.00
20487;DHT22;10402;49.012;8.370;2023-05-18T02:45:04;9.40;69.00
20487;DHT22;10402;49.012;8.370;2023-05-18T02:47:30;9.30;69.20
20487;DHT22;10402;49.012;8.370;2023-05-18T02:49:55;9.30;69.40
20487;DHT22;10402;49.012;8.370;2023-05-18T02:52:21;9.30;69.40
20487;DHT22;10402;49.012;8.370;2023-05-18T02:54:46;9.20;69.50
20487;DHT22;10402;49.012;8.370;2023-05-18T02:57:12;9.20;69.60
20487;DHT22;10402;49.012;8.370;2023-05-18T02:59:38;9.20;69.80
20487;DHT22;10402;49.012;8.370;2023-05-18T03:02:04;9.20;69.80
20487;DHT22;10402;49.012;8.370;2023-05-18T03:04:30;9.20;69.60
20487;DHT22;10402;49.012;8.370;2023-05-18T03:06:56;9.20;69.60
20487;DHT22;10402;49.012;8.370;2023-05-18T03:09:22;9.20;69.40
20487;DHT22;10402;49.012;8.370;2023-05-18T03:11:48;9.20;69.40
20487;DHT22;10402;49.012;8.370;2023-05-18T03:14:14;9.20;69.30
20487;DHT22;10402;49.012;8.370;2023-05-18T03:16:40;9.20;69.40
20487;DHT22;10402;49.012;8.370;2023-05-18T03:19:05;9.20;69.40
20487;DHT22;10402;49.012;8.370;2023-05-18T03:21:31;9.20;69.40
20487;DHT22;10402;49.012;8.370;2023-05-18T03:24:01;9.20;69.50
20487;DHT22;10402;49.012;8.370;2023-05-18T03:26:27;9.10;69.50
20487;DHT22;10402;49.012;8.370;2023-05-18T03:28:55;9.10;69.60
20487;DHT22;10402;49.012;8.370;2023-05-18T03:31:21;9.10;69.60
20487;DHT22;10402;49.012;8.370;2023-05-18T03:33:47;9.10;69.60
20487;DHT22;10402;49.012;8.370;2023-05-18T03:36:12;9.10;69.70
20487;DHT22;10402;49.012;8.370;2023-05-18T03:38:38;9.10;69.70
20487;DHT22;10402;49.012;8.370;2023-05-18T03:41:03;9.10;69.70
20487;DHT22;10402;49.012;8.370;2023-05-18T03:43:29;9.00;69.70
20487;DHT22;10402;49.012;8.370;2023-05-18T03:45:56;9.00;69.70
20487;DHT22;10402;49.012;8.370;2023-05-18T03:48:23;8.90;69.80
20487;DHT22;10402;49.012;8.370;2023-05-18T03:50:49;8.90;70.10
20487;DHT22;10402;49.012;8.370;2023-05-18T03:53:15;8.90;70.10
20487;DHT22;10402;49.012;8.370;2023-05-18T03:55:43;8.90;70.00
20487;DHT22;10402;49.012;8.370;2023-05-18T03:58:09;8.90;70.10
20487;DHT22;10402;49.012;8.370;2023-05-18T04:00:35;8.90;70.20
20487;DHT22;10402;49.012;8.370;2023-05-18T04:03:00;8.80;70.20
20487;DHT22;10402;49.012;8.370;2023-05-18T04:05:27;8.80;70.50
20487;DHT22;10402;49.012;8.370;2023-05-18T04:07:53;8.90;70.30
20487;DHT22;10402;49.012;8.370;2023-05-18T04:10:22;8.80;70.10
20487;DHT22;10402;49.012;8.370;2023-05-18T04:12:48;8.80;70.30
20487;DHT22;10402;49.012;8.370;2023-05-18T04:15:13;8.80;70.40
20487;DHT22;10402;49.012;8.370;2023-05-18T04:17:39;8.80;70.40
20487;DHT22;10402;49.012;8.370;2023-05-18T04:20:16;8.90;70.50
20487;DHT22;10402;49.012;8.370;2023-05-18T04:22:44;8.80;70.40
20487;DHT22;10402;49.012;8.370;2023-05-18T04:25:14;8.90;70.50
20487;DHT22;10402;49.012;8.370;2023-05-18T04:27:41;8.90;70.70
20487;DHT22;10402;49.012;8.370;2023-05-18T04:30:08;8.90;70.80
20487;DHT22;10402;49.012;8.370;2023-05-18T04:32:36;8.90;70.60
20487;DHT22;10402;49.012;8.370;2023-05-18T04:35:05;9.00;70.70
20487;DHT22;10402;49.012;8.370;2023-05-18T04:37:34;9.00;70.70
20487;DHT22;10402;49.012;8.370;2023-05-18T04:40:00;9.00;70.80
20487;DHT22;10402;49.012;8.370;2023-05-18T04:42:30;9.00;70.70
20487;DHT22;10402;49.012;8.370;2023-05-18T04:44:56;9.00;70.70
20487;DHT22;10402;49.012;8.370;2023-05-18T04:47:21;8.90;70.80
20487;DHT22;10402;49.012;8.370;2023-05-18T04:49:48;8.90;71.00
20487;DHT22;10402;49.012;8.370;2023-05-18T04:52:17;8.90;71.10
20487;DHT22;10402;49.012;8.370;2023-05-18T04:54:43;9.00;71.20
20487;DHT22;10402;49.012;8.370;2023-05-18T04:57:09;8.90;71.00
20487;DHT22;10402;49.012;8.370;2023-05-18T04:59:35;9.00;71.10
20487;DHT22;10402;49.012;8.370;2023-05-18T05:02:04;9.00;71.00
20487;DHT22;10402;49.012;8.370;2023-05-18T05:04:29;9.00;71.00
20487;DHT22;10402;49.012;8.370;2023-05-18T05:06:55;9.00;71.10
20487;DHT22;10402;49.012;8.370;2023-05-18T05:09:21;9.00;71.10
20487;DHT22;10402;49.012;8.370;2023-05-18T05:11:46;9.00;71.10
20487;DHT22;10402;49.012;8.370;2023-05-18T05:14:12;9.00;72.00
20487;DHT22;10402;49.012;8.370;2023-05-18T05:16:38;9.10;71.20
20487;DHT22;10402;49.012;8.370;2023-05-18T05:19:04;9.10;71.30
20487;DHT22;10402;49.012;8.370;2023-05-18T05:21:29;9.20;71.20
20487;DHT22;10402;49.012;8.370;2023-05-18T05:23:56;9.30;71.30
20487;DHT22;10402;49.012;8.370;2023-05-18T05:26:21;9.30;71.20
20487;DHT22;10402;49.012;8.370;2023-05-18T05:28:47;9.50;71.20
20487;DHT22;10402;49.012;8.370;2023-05-18T05:31:13;9.50;71.00
20487;DHT22;10402;49.012;8.370;2023-05-18T05:33:39;9.50;71.00
20487;DHT22;10402;49.012;8.370;2023-05-18T05:36:04;9.50;71.00
20487;DHT22;10402;49.012;8.370;2023-05-18T05:38:31;9.50;71.10
20487;DHT22;10402;49.012;8.370;2023-05-18T05:40:57;9.50;71.20
20487;DHT22;10402;49.012;8.370;2023-05-18T05:43:22;9.50;71.20
20487;DHT22;10402;49.012;8.370;2023-05-18T05:45:48;9.50;71.30
20487;DHT22;10402;49.012;8.370;2023-05-18T05:48:14;9.50;71.10
20487;DHT22;10402;49.012;8.370;2023-05-18T05:50:39;9.60;71.10
20487;DHT22;10402;49.012;8.370;2023-05-18T05:53:05;9.70;71.00
20487;DHT22;10402;49.012;8.370;2023-05-18T05:55:31;9.80;70.80
20487;DHT22;10402;49.012;8.370;2023-05-18T05:57:56;9.90;70.80
20487;DHT22;10402;49.012;8.370;2023-05-18T06:00:22;9.90;70.50
20487;DHT22;10402;49.012;8.370;2023-05-18T06:02:48;10.00;69.30
20487;DHT22;10402;49.012;8.370;2023-05-18T06:05:14;10.10;69.20
20487;DHT22;10402;49.012;8.370;2023-05-18T06:07:40;10.20;69.10
20487;DHT22;10402;49.012;8.370;2023-05-18T06:10:06;10.20;69.10
20487;DHT22;10402;49.012;8.370;2023-05-18T06:12:32;10.30;69.10
20487;DHT22;10402;49.012;8.370;2023-05-18T06:14:58;10.30;69.10
20487;DHT22;10402;49.012;8.370;2023-05-18T06:17:27;10.40;69.20
20487;DHT22;10402;49.012;8.370;2023-05-18T06:19:53;10.40;69.00
20487;DHT22;10402;49.012;8.370;2023-05-18T06:22:19;10.40;69.10
20487;DHT22;10402;49.012;8.370;2023-05-18T06:24:44;10.50;69.20
20487;DHT22;10402;49.012;8.370;2023-05-18T06:27:10;10.50;69.00
20487;DHT22;10402;49.012;8.370;2023-05-18T06:29:36;10.60;68.70
20487;DHT22;10402;49.012;8.370;2023-05-18T06:32:02;10.70;68.30
20487;DHT22;10402;49.012;8.370;2023-05-18T06:34:27;10.80;68.20
20487;DHT22;10402;49.012;8.370;2023-05-18T06:36:53;10.80;68.00
20487;DHT22;10402;49.012;8.370;2023-05-18T06:39:18;10.90;67.80
20487;DHT22;10402;49.012;8.370;2023-05-18T06:41:44;11.00;67.60
20487;DHT22;10402;49.012;8.370;2023-05-18T06:44:10;11.00;67.00
20487;DHT22;10402;49.012;8.370;2023-05-18T06:46:36;11.10;67.00
20487;DHT22;10402;49.012;8.370;2023-05-18T06:49:02;11.10;67.00
20487;DHT22;10402;49.012;8.370;2023-05-18T06:51:28;11.20;66.70
20487;DHT22;10402;49.012;8.370;2023-05-18T06:53:53;11.30;66.50
20487;DHT22;10402;49.012;8.370;2023-05-18T06:56:19;11.30;66.30
20487;DHT22;10402;49.012;8.370;2023-05-18T06:58:46;11.30;66.10
20487;DHT22;10402;49.012;8.370;2023-05-18T07:01:11;11.40;65.80
20487;DHT22;10402;49.012;8.370;2023-05-18T07:03:37;11.40;65.80
20487;DHT22;10402;49.012;8.370;2023-05-18T07:06:03;11.50;65.60
20487;DHT22;10402;49.012;8.370;2023-05-18T07:08:30;11.50;65.50
20487;DHT22;10402;49.012;8.370;2023-05-18T07:10:56;11.60;65.60
20487;DHT22;10402;49.012;8.370;2023-05-18T07:13:23;11.60;65.50
20487;DHT22;10402;49.012;8.370;2023-05-18T07:15:48;11.70;65.30
20487;DHT22;10402;49.012;8.370;2023-05-18T07:18:14;11.80;65.30
20487;DHT22;10402;49.012;8.370;2023-05-18T07:20:40;11.90;65.20
20487;DHT22;10402;49.012;8.370;2023-05-18T07:23:06;11.90;65.10
20487;DHT22;10402;49.012;8.370;2023-05-18T07:25:31;12.00;65.00
20487;DHT22;10402;49.012;8.370;2023-05-18T07:27:57;12.10;64.90
20487;DHT22;10402;49.012;8.370;2023-05-18T07:30:23;12.10;64.70
20487;DHT22;10402;49.012;8.370;2023-05-18T07:32:50;12.20;64.70
20487;DHT22;10402;49.012;8.370;2023-05-18T07:35:16;12.20;64.30
20487;DHT22;10402;49.012;8.370;2023-05-18T07:37:43;12.20;64.30
20487;DHT22;10402;49.012;8.370;2023-05-18T07:40:09;12.30;64.30
20487;DHT22;10402;49.012;8.370;2023-05-18T07:42:37;12.30;64.30
20487;DHT22;10402;49.012;8.370;2023-05-18T07:45:04;12.30;64.00
20487;DHT22;10402;49.012;8.370;2023-05-18T07:47:29;12.40;64.10
20487;DHT22;10402;49.012;8.370;2023-05-18T07:49:55;12.50;63.90
20487;DHT22;10402;49.012;8.370;2023-05-18T07:52:20;12.50;63.50
20487;DHT22;10402;49.012;8.370;2023-05-18T07:54:46;12.60;63.50
20487;DHT22;10402;49.012;8.370;2023-05-18T07:57:11;12.70;63.30
20487;DHT22;10402;49.012;8.370;2023-05-18T07:59:37;12.70;63.10
20487;DHT22;10402;49.012;8.370;2023-05-18T08:02:03;12.70;62.80
20487;DHT22;10402;49.012;8.370;2023-05-18T08:04:29;12.70;62.60
20487;DHT22;10402;49.012;8.370;2023-05-18T08:06:55;12.80;62.60
20487;DHT22;10402;49.012;8.370;2023-05-18T08:09:28;12.80;62.70
20487;DHT22;10402;49.012;8.370;2023-05-18T08:11:53;12.90;62.70
20487;DHT22;10402;49.012;8.370;2023-05-18T08:14:19;13.00;62.70
20487;DHT22;10402;49.012;8.370;2023-05-18T08:16:44;13.20;62.70
20487;DHT22;10402;49.012;8.370;2023-05-18T08:19:10;13.30;63.30
20487;DHT22;10402;49.012;8.370;2023-05-18T08:21:36;13.30;62.50
20487;DHT22;10402;49.012;8.370;2023-05-18T08:24:02;13.40;62.20
20487;DHT22;10402;49.012;8.370;2023-05-18T08:26:28;13.40;62.00
20487;DHT22;10402;49.012;8.370;2023-05-18T08:28:54;13.50;61.90
20487;DHT22;10402;49.012;8.370;2023-05-18T08:31:19;13.40;61.60
20487;DHT22;10402;49.012;8.370;2023-05-18T08:33:46;13.50;62.10
20487;DHT22;10402;49.012;8.370;2023-05-18T08:36:12;13.60;61.80
20487;DHT22;10402;49.012;8.370;2023-05-18T08:38:38;13.60;61.60
20487;DHT22;10402;49.012;8.370;2023-05-18T08:41:25;13.60;61.70
20487;DHT22;10402;49.012;8.370;2023-05-18T08:44:10;13.70;61.50
20487;DHT22;10402;49.012;8.370;2023-05-18T08:46:41;13.70;61.20
20487;DHT22;10402;49.012;8.370;2023-05-18T08:49:14;13.80;61.30
20487;DHT22;10402;49.012;8.370;2023-05-18T08:51:44;13.80;61.20
20487;DHT22;10402;49.012;8.370;2023-05-18T08:54:10;13.80;61.00
20487;DHT22;10402;49.012;8.370;2023-05-18T08:56:40;13.80;61.20
20487;DHT22;10402;49.012;8.370;2023-05-18T08:59:06;13.90;61.20
20487;DHT22;10402;49.012;8.370;2023-05-18T09:01:33;14.00;61.00
20487;DHT22;10402;49.012;8.370;2023-05-18T09:03:59;14.00;61.00
20487;DHT22;10402;49.012;8.370;2023-05-18T09:06:25;14.10;60.70
20487;DHT22;10402;49.012;8.370;2023-05-18T09:08:53;14.20;60.80
20487;DHT22;10402;49.012;8.370;2023-05-18T09:11:19;14.20;60.80
20487;DHT22;10402;49.012;8.370;2023-05-18T09:13:47;14.20;60.40
20487;DHT22;10402;49.012;8.370;2023-05-18T09:16:13;14.30;60.50
20487;DHT22;10402;49.012;8.370;2023-05-18T09:18:39;14.40;60.60
20487;DHT22;10402;49.012;8.370;2023-05-18T09:21:05;14.40;60.30
20487;DHT22;10402;49.012;8.370;2023-05-18T09:23:31;14.40;60.20
20487;DHT22;10402;49.012;8.370;2023-05-18T09:25:58;14.50;60.40
20487;DHT22;10402;49.012;8.370;2023-05-18T09:28:34;14.60;60.60
20487;DHT22;10402;49.012;8.370;2023-05-18T09:31:00;14.70;60.50
20487;DHT22;10402;49.012;8.370;2023-05-18T09:33:32;14.80;60.30
20487;DHT22;10402;49.012;8.370;2023-05-18T09:35:58;14.90;60.00
20487;DHT22;10402;49.012;8.370;2023-05-18T09:38:24;14.90;59.70
20487;DHT22;10402;49.012;8.370;2023-05-18T09:40:49;14.90;59.50
20487;DHT22;10402;49.012;8.370;2023-05-18T09:43:18;14.90;59.60
20487;DHT22;10402;49.012;8.370;2023-05-18T09:45:46;14.90;59.10
20487;DHT22;10402;49.012;8.370;2023-05-18T09:48:13;14.90;58.90
20487;DHT22;10402;49.012;8.370;2023-05-18T09:50:40;15.00;59.00
20487;DHT22;10402;49.012;8.370;2023-05-18T09:53:08;15.10;59.10
20487;DHT22;10402;49.012;8.370;2023-05-18T09:55:47;15.20;59.00
20487;DHT22;10402;49.012;8.370;2023-05-18T09:58:14;15.30;59.10
20487;DHT22;10402;49.012;8.370;2023-05-18T10:00:41;15.40;59.00
20487;DHT22;10402;49.012;8.370;2023-05-18T10:03:19;15.50;58.60
20487;DHT22;10402;49.012;8.370;2023-05-18T10:05:45;15.50;58.60
20487;DHT22;10402;49.012;8.370;2023-05-18T10:08:14;15.60;58.70
20487;DHT22;10402;49.012;8.370;2023-05-18T10:10:45;15.70;58.70
20487;DHT22;10402;49.012;8.370;2023-05-18T10:13:13;15.80;58.30
20487;DHT22;10402;49.012;8.370;2023-05-18T10:15:49;15.80;57.90
20487;DHT22;10402;49.012;8.370;2023-05-18T10:18:20;15.90;57.80
20487;DHT22;10402;49.012;8.370;2023-05-18T10:20:47;16.00;57.50
20487;DHT22;10402;49.012;8.370;2023-05-18T10:23:13;16.10;57.40
20487;DHT22;10402;49.012;8.370;2023-05-18T10:25:41;16.10;57.10
20487;DHT22;10402;49.012;8.370;2023-05-18T10:28:10;16.10;57.00
20487;DHT22;10402;49.012;8.370;2023-05-18T10:30:37;16.20;57.10
20487;DHT22;10402;49.012;8.370;2023-05-18T10:33:04;16.30;57.00
20487;DHT22;10402;49.012;8.370;2023-05-18T10:35:31;16.40;56.70
20487;DHT22;10402;49.012;8.370;2023-05-18T10:37:58;16.30;56.00
20487;DHT22;10402;49.012;8.370;2023-05-18T10:40:26;16.30;55.80
20487;DHT22;10402;49.012;8.370;2023-05-18T10:42:55;16.30;55.80
20487;DHT22;10402;49.012;8.370;2023-05-18T10:45:21;16.40;55.80
20487;DHT22;10402;49.012;8.370;2023-05-18T10:47:48;16.50;55.90
20487;DHT22;10402;49.012;8.370;2023-05-18T10:50:19;16.50;55.80
20487;DHT22;10402;49.012;8.370;2023-05-18T10:52:45;16.50;55.50
20487;DHT22;10402;49.012;8.370;2023-05-18T10:55:11;16.60;55.60
20487;DHT22;10402;49.012;8.370;2023-05-18T10:57:40;16.70;55.70
20487;DHT22;10402;49.012;8.370;2023-05-18T11:00:08;16.80;55.60
20487;DHT22;10402;49.012;8.370;2023-05-18T11:02:36;16.90;55.50
20487;DHT22;10402;49.012;8.370;2023-05-18T11:05:05;16.80;55.10
20487;DHT22;10402;49.012;8.370;2023-05-18T11:07:31;16.70;54.70
20487;DHT22;10402;49.012;8.370;2023-05-18T11:10:00;16.60;54.90
20487;DHT22;10402;49.012;8.370;2023-05-18T11:12:26;16.60;55.00
20487;DHT22;10402;49.012;8.370;2023-05-18T11:14:53;16.60;54.40
20487;DHT22;10402;49.012;8.370;2023-05-18T11:17:24;16.70;54.60
20487;DHT22;10402;49.012;8.370;2023-05-18T11:27:53;16.90;54.00
20487;DHT22;10402;49.012;8.370;2023-05-18T11:41:36;17.00;53.60
20487;DHT22;10402;49.012;8.370;2023-05-18T11:44:16;17.00;53.60
20487;DHT22;10402;49.012;8.370;2023-05-18T11:46:53;17.00;53.30
20487;DHT22;10402;49.012;8.370;2023-05-18T11:49:24;17.00;52.90
20487;DHT22;10402;49.012;8.370;2023-05-18T11:52:01;17.00;53.20
20487;DHT22;10402;49.012;8.370;2023-05-18T11:54:27;17.10;53.30
20487;DHT22;10402;49.012;8.370;2023-05-18T11:56:53;17.10;53.30
20487;DHT22;10402;49.012;8.370;2023-05-18T11:59:35;17.20;53.30
20487;DHT22;10402;49.012;8.370;2023-05-18T12:02:01;17.30;53.20
20487;DHT22;10402;49.012;8.370;2023-05-18T12:04:28;17.30;52.90
20487;DHT22;10402;49.012;8.370;2023-05-18T12:06:55;17.40;52.70
20487;DHT22;10402;49.012;8.370;2023-05-18T12:09:21;17.40;52.30
20487;DHT22;10402;49.012;8.370;2023-05-18T12:11:49;17.30;52.20
20487;DHT22;10402;49.012;8.370;2023-05-18T12:14:17;17.20;52.00
20487;DHT22;10402;49.012;8.370;2023-05-18T12:16:42;17.20;52.10
20487;DHT22;10402;49.012;8.370;2023-05-18T12:19:09;17.20;52.10
20487;DHT22;10402;49.012;8.370;2023-05-18T12:21:35;17.20;52.20
20487;DHT22;10402;49.012;8.370;2023-05-18T12:24:01;17.30;52.30
20487;DHT22;10402;49.012;8.370;2023-05-18T12:26:28;17.40;52.10
20487;DHT22;10402;49.012;8.370;2023-05-18T12:28:54;17.50;52.20
20487;DHT22;10402;49.012;8.370;2023-05-18T12:31:20;17.50;51.90
20487;DHT22;10402;49.012;8.370;2023-05-18T12:33:46;17.60;51.60
20487;DHT22;10402;49.012;8.370;2023-05-18T12:36:14;17.50;51.40
20487;DHT22;10402;49.012;8.370;2023-05-18T12:38:41;17.50;51.40
20487;DHT22;10402;49.012;8.370;2023-05-18T12:41:06;17.50;51.30
20487;DHT22;10402;49.012;8.370;2023-05-18T12:43:33;17.50;51.20
20487;DHT22;10402;49.012;8.370;2023-05-18T12:46:03;17.60;51.30
20487;DHT22;10402;49.012;8.370;2023-05-18T12:48:36;17.60;51.40
20487;DHT22;10402;49.012;8.370;2023-05-18T12:51:03;17.70;51.60
20487;DHT22;10402;49.012;8.370;2023-05-18T12:53:41;17.80;51.30
20487;DHT22;10402;49.012;8.370;2023-05-18T12:56:07;17.90;51.40
20487;DHT22;10402;49.012;8.370;2023-05-18T12:58:36;17.90;51.20
20487;DHT22;10402;49.012;8.370;2023-05-18T13:01:09;17.90;50.70
20487;DHT22;10402;49.012;8.370;2023-05-18T13:03:38;17.80;50.60
20487;DHT22;10402;49.012;8.370;2023-05-18T13:06:06;17.90;50.80
20487;DHT22;10402;49.012;8.370;2023-05-18T13:08:32;17.90;50.80
20487;DHT22;10402;49.012;8.370;2023-05-18T13:11:06;17.90;50.60
20487;DHT22;10402;49.012;8.370;2023-05-18T13:13:32;18.10;54.00
20487;DHT22;10402;49.012;8.370;2023-05-18T13:15:58;18.10;50.40
20487;DHT22;10402;49.012;8.370;2023-05-18T13:18:25;18.10;60.50
20487;DHT22;10402;49.012;8.370;2023-05-18T13:20:57;18.10;50.00
20487;DHT22;10402;49.012;8.370;2023-05-18T13:23:29;18.00;49.50
20487;DHT22;10402;49.012;8.370;2023-05-18T13:25:55;18.10;49.60
20487;DHT22;10402;49.012;8.370;2023-05-18T13:28:21;18.00;49.20
20487;DHT22;10402;49.012;8.370;2023-05-18T13:30:47;18.10;49.30
20487;DHT22;10402;49.012;8.370;2023-05-18T13:33:14;18.10;49.30
20487;DHT22;10402;49.012;8.370;2023-05-18T13:35:42;18.10;49.30
20487;DHT22;10402;49.012;8.370;2023-05-18T13:38:09;18.20;49.40
20487;DHT22;10402;49.012;8.370;2023-05-18T13:40:34;18.20;48.70
20487;DHT22;10402;49.012;8.370;2023-05-18T13:43:00;18.20;48.90
20487;DHT22;10402;49.012;8.370;2023-05-18T13:45:26;18.20;48.80
20487;DHT22;10402;49.012;8.370;2023-05-18T13:47:51;18.30;48.70
20487;DHT22;10402;49.012;8.370;2023-05-18T13:50:21;18.30;48.80
20487;DHT22;10402;49.012;8.370;2023-05-18T13:52:47;18.40;48.80
20487;DHT22;10402;49.012;8.370;2023-05-18T13:55:12;18.50;49.00
20487;DHT22;10402;49.012;8.370;2023-05-18T13:57:38;18.60;49.00
20487;DHT22;10402;49.012;8.370;2023-05-18T14:00:04;18.60;48.50
20487;DHT22;10402;49.012;8.370;2023-05-18T14:02:35;18.60;48.10
20487;DHT22;10402;49.012;8.370;2023-05-18T14:05:02;18.50;47.90
20487;DHT22;10402;49.012;8.370;2023-05-18T14:07:28;18.50;48.20
20487;DHT22;10402;49.012;8.370;2023-05-18T14:09:54;18.50;48.50
20487;DHT22;10402;49.012;8.370;2023-05-18T14:12:19;18.60;48.60
20487;DHT22;10402;49.012;8.370;2023-05-18T14:14:45;18.60;48.40
20487;DHT22;10402;49.012;8.370;2023-05-18T14:17:10;18.70;48.50
20487;DHT22;10402;49.012;8.370;2023-05-18T14:19:38;18.70;48.10
20487;DHT22;10402;49.012;8.370;2023-05-18T14:22:03;18.70;48.20
20487;DHT22;10402;49.012;8.370;2023-05-18T14:24:29;18.70;47.80
20487;DHT22;10402;49.012;8.370;2023-05-18T14:26:54;18.70;47.80
20487;DHT22;10402;49.012;8.370;2023-05-18T14:29:20;18.70;47.60
20487;DHT22;10402;49.012;8.370;2023-05-18T14:31:45;18.70;47.40
20487;DHT22;10402;49.012;8.370;2023-05-18T14:34:11;18.80;47.50
20487;DHT22;10402;49.012;8.370;2023-05-18T14:36:36;18.80;48.00
20487;DHT22;10402;49.012;8.370;2023-05-18T14:39:02;18.70;47.00
20487;DHT22;10402;49.012;8.370;2023-05-18T14:41:29;18.70;46.90
20487;DHT22;10402;49.012;8.370;2023-05-18T14:43:54;18.70;47.00
20487;DHT22;10402;49.012;8.370;2023-05-18T14:46:20;18.70;47.00
20487;DHT22;10402;49.012;8.370;2023-05-18T14:51:16;18.70;46.80
20487;DHT22;10402;49.012;8.370;2023-05-18T14:53:42;18.70;46.90
20487;DHT22;10402;49.012;8.370;2023-05-18T14:56:08;18.70;47.20
20487;DHT22;10402;49.012;8.370;2023-05-18T14:58:34;18.70;47.10
20487;DHT22;10402;49.012;8.370;2023-05-18T15:01:00;18.80;47.10
20487;DHT22;10402;49.012;8.370;2023-05-18T15:03:26;18.80;46.60
20487;DHT22;10402;49.012;8.370;2023-05-18T15:05:51;18.90;46.70
20487;DHT22;10402;49.012;8.370;2023-05-18T15:08:17;18.80;46.50
20487;DHT22;10402;49.012;8.370;2023-05-18T15:10:42;18.90;46.70
20487;DHT22;10402;49.012;8.370;2023-05-18T15:13:08;18.90;46.70
20487;DHT22;10402;49.012;8.370;2023-05-18T15:15:34;19.00;46.80
20487;DHT22;10402;49.012;8.370;2023-05-18T15:18:00;19.00;46.70
20487;DHT22;10402;49.012;8.370;2023-05-18T15:20:25;19.00;47.30
20487;DHT22;10402;49.012;8.370;2023-05-18T15:22:51;19.00;46.60
20487;DHT22;10402;49.012;8.370;2023-05-18T15:25:17;19.00;46.70
20487;DHT22;10402;49.012;8.370;2023-05-18T15:27:42;19.00;46.60
20487;DHT22;10402;49.012;8.370;2023-05-18T15:30:08;19.00;46.30
20487;DHT22;10402;49.012;8.370;2023-05-18T15:32:37;19.10;46.50
20487;DHT22;10402;49.012;8.370;2023-05-18T15:35:03;19.10;46.40
20487;DHT22;10402;49.012;8.370;2023-05-18T15:37:29;19.10;46.40
20487;DHT22;10402;49.012;8.370;2023-05-18T15:39:54;19.20;46.00
20487;DHT22;10402;49.012;8.370;2023-05-18T15:42:20;19.20;46.20
20487;DHT22;10402;49.012;8.370;2023-05-18T15:44:45;19.10;45.80
20487;DHT22;10402;49.012;8.370;2023-05-18T15:47:11;19.10;45.70
20487;DHT22;10402;49.012;8.370;2023-05-18T15:49:36;19.10;45.80
20487;DHT22;10402;49.012;8.370;2023-05-18T15:52:02;19.10;45.90
20487;DHT22;10402;49.012;8.370;2023-05-18T15:54:28;19.10;45.70
20487;DHT22;10402;49.012;8.370;2023-05-18T15:56:53;19.10;45.80
20487;DHT22;10402;49.012;8.370;2023-05-18T15:59:19;19.10;45.50
20487;DHT22;10402;49.012;8.370;2023-05-18T16:01:44;19.20;45.60
20487;DHT22;10402;49.012;8.370;2023-05-18T16:04:10;19.20;45.70
20487;DHT22;10402;49.012;8.370;2023-05-18T16:06:35;19.20;45.80